Time;durP1;ratioP1;P1;durP2;ratioP2;P2;SDS_P1;SDS_P2;PMS_P1;PMS_P2;Temp;Humidity;BMP_temperature;BMP_pressure;BME280_temperature;BME280_humidity;BME280_pressure;Samples;Min_cycle;Max_cycle;Signal;HPM_P1;HPM_P2
2024/02/23 00:00:42;;;;;;;5.07;1.05;;;5.10;99.90;;;;;;4992389;28;20673;-73
2024/02/23 00:03:08;;;;;;;3.65;0.60;;;5.10;99.90;;;;;;4976751;28;20042;-73
2024/02/23 00:05:34;;;;;;;5.10;0.80;;;5.10;99.90;;;;;;5000367;28;20110;-75
2024/02/23 00:07:59;;;;;;;5.07;0.80;;;5.20;99.90;;;;;;4977733;28;20128;-72
2024/02/23 00:10:25;;;;;;;3.67;1.00;;;5.20;99.90;;;;;;4990609;28;20026;-73
2024/02/23 00:12:51;;;;;;;5.57;0.98;;;5.20;99.90;;;;;;4994177;28;20566;-72
2024/02/23 00:15:17;;;;;;;4.65;1.15;;;5.30;99.90;;;;;;4992082;28;20070;-73
2024/02/23 00:17:43;;;;;;;5.10;0.80;;;5.20;99.90;;;;;;5000192;28;20109;-72
2024/02/23 00:20:14;;;;;;;2.83;0.90;;;5.30;99.90;;;;;;4997953;28;20427;-73
2024/02/23 00:22:40;;;;;;;;;;;5.30;99.90;;;;;;4977618;28;20515;-73
2024/02/23 00:25:06;;;;;;;4.93;0.80;;;5.30;99.90;;;;;;4994139;28;19948;-73
2024/02/23 00:27:31;;;;;;;5.05;1.00;;;5.30;99.90;;;;;;4972589;28;20029;-73
2024/02/23 00:29:57;;;;;;;2.83;0.93;;;5.30;99.90;;;;;;4989811;28;20033;-73
2024/02/23 00:32:23;;;;;;;6.43;1.40;;;5.30;99.90;;;;;;4990205;28;20492;-73
2024/02/23 00:34:49;;;;;;;9.30;1.70;;;5.20;99.90;;;;;;4989485;28;20484;-73
2024/02/23 00:37:15;;;;;;;6.32;1.10;;;5.20;99.90;;;;;;4990528;28;20033;-73
2024/02/23 00:39:40;;;;;;;5.32;1.08;;;5.20;99.90;;;;;;4989391;28;20404;-72
2024/02/23 00:42:07;;;;;;;4.72;1.58;;;5.20;99.90;;;;;;4990115;28;20036;-73
2024/02/23 00:44:33;;;;;;;6.10;1.50;;;5.20;99.90;;;;;;4995254;28;20041;-73
2024/02/23 00:47:01;;;;;;;7.32;1.27;;;5.30;99.90;;;;;;4990982;28;20027;-73
2024/02/23 00:49:28;;;;;;;3.42;1.30;;;5.30;99.90;;;;;;4996718;28;20125;-73
2024/02/23 00:51:55;;;;;;;4.82;1.30;;;5.20;99.90;;;;;;4985753;28;20018;-73
2024/02/23 00:54:21;;;;;;;3.97;1.48;;;5.20;99.90;;;;;;5002554;28;20038;-73
2024/02/23 00:56:47;;;;;;;6.47;1.50;;;5.20;99.90;;;;;;4981918;28;20022;-73
2024/02/23 00:59:13;;;;;;;4.38;1.55;;;5.20;99.90;;;;;;4984056;28;20011;-73
2024/02/23 01:01:38;;;;;;;4.93;1.40;;;5.20;99.90;;;;;;4985598;28;20088;-73
2024/02/23 01:04:04;;;;;;;5.57;1.90;;;5.20;99.90;;;;;;5000846;28;20035;-73
2024/02/23 01:06:30;;;;;;;7.85;2.45;;;5.20;99.90;;;;;;4983281;28;20448;-73
2024/02/23 01:08:56;;;;;;;12.43;3.42;;;5.30;99.90;;;;;;4994340;28;20034;-74
2024/02/23 01:11:21;;;;;;;10.70;3.70;;;5.30;99.90;;;;;;5000092;28;20055;-73
2024/02/23 01:13:47;;;;;;;7.70;2.67;;;5.30;99.90;;;;;;5002383;28;20365;-74
2024/02/23 01:16:13;;;;;;;12.50;3.33;;;5.30;99.90;;;;;;4989346;28;20042;-74
2024/02/23 01:18:39;;;;;;;10.02;3.78;;;5.30;99.90;;;;;;4971670;28;20023;-74
2024/02/23 01:21:05;;;;;;;7.63;3.55;;;5.30;99.90;;;;;;4985260;28;20027;-74
2024/02/23 01:23:32;;;;;;;8.32;3.50;;;5.40;99.90;;;;;;4992606;28;20026;-74
2024/02/23 01:25:59;;;;;;;9.15;3.50;;;5.40;99.90;;;;;;4993132;28;20029;-74
2024/02/23 01:28:25;;;;;;;7.88;3.33;;;5.40;99.90;;;;;;4971641;28;20026;-74
2024/02/23 01:30:51;;;;;;;10.00;3.40;;;5.40;99.90;;;;;;4989781;28;20045;-74
2024/02/23 01:33:17;;;;;;;10.57;3.42;;;5.40;99.90;;;;;;4987848;28;20492;-73
2024/02/23 01:35:43;;;;;;;7.03;2.60;;;5.50;99.90;;;;;;4989469;28;20022;-74
2024/02/23 01:38:08;;;;;;;9.68;2.70;;;5.50;99.90;;;;;;4969552;28;20559;-74
2024/02/23 01:40:35;;;;;;;6.88;2.85;;;5.40;99.90;;;;;;4996584;28;20121;-74
2024/02/23 01:43:04;;;;;;;11.10;2.80;;;5.50;99.90;;;;;;4984814;28;20088;-73
2024/02/23 01:45:31;;;;;;;6.70;2.00;;;5.50;99.90;;;;;;4988640;28;20515;-73
2024/02/23 01:47:57;;;;;;;8.18;2.13;;;5.40;99.90;;;;;;4971358;28;20511;-73
2024/02/23 01:50:24;;;;;;;6.68;2.30;;;5.40;99.90;;;;;;4988154;28;20540;-74
2024/02/23 01:52:52;;;;;;;9.10;2.05;;;5.40;99.90;;;;;;4988956;28;20026;-74
2024/02/23 01:55:20;;;;;;;8.07;2.13;;;5.40;99.90;;;;;;4988480;28;20022;-73
2024/02/23 01:57:47;;;;;;;6.95;1.77;;;5.40;99.90;;;;;;4988721;28;20037;-74
2024/02/23 02:00:16;;;;;;;10.00;2.00;;;5.40;99.90;;;;;;4990378;28;20033;-73
2024/02/23 02:02:44;;;;;;;7.18;1.73;;;5.40;99.90;;;;;;4972662;28;20026;-73
2024/02/23 02:05:10;;;;;;;5.90;1.58;;;5.40;99.90;;;;;;4988128;28;20108;-73
2024/02/23 02:07:36;;;;;;;6.45;1.50;;;5.30;99.90;;;;;;4988933;28;20034;-74
2024/02/23 02:10:03;;;;;;;6.03;1.27;;;5.40;99.90;;;;;;4988106;28;20072;-74
2024/02/23 02:12:29;;;;;;;10.43;1.80;;;5.30;99.90;;;;;;4988598;28;20434;-73
2024/02/23 02:14:55;;;;;;;8.23;1.50;;;5.30;99.90;;;;;;4989207;28;20101;-73
2024/02/23 02:17:21;;;;;;;8.00;1.40;;;5.30;99.90;;;;;;4994145;28;20496;-72
2024/02/23 02:19:51;;;;;;;5.32;1.02;;;5.30;99.90;;;;;;4998449;28;20050;-73
2024/02/23 02:22:17;;;;;;;6.82;1.40;;;5.40;99.90;;;;;;5002087;28;20407;-73
2024/02/23 02:24:43;;;;;;;8.25;1.23;;;5.30;99.90;;;;;;4976928;28;20029;-74
2024/02/23 02:27:09;;;;;;;10.25;1.33;;;5.30;99.90;;;;;;4994536;28;20030;-73
2024/02/23 02:29:37;;;;;;;10.63;1.50;;;5.30;99.90;;;;;;5001643;28;20498;-73
2024/02/23 02:32:02;;;;;;;3.40;1.15;;;5.30;99.90;;;;;;4999621;28;20022;-73
2024/02/23 02:34:29;;;;;;;5.07;1.27;;;5.40;99.90;;;;;;4993303;28;20028;-74
2024/02/23 02:36:55;;;;;;;9.30;1.23;;;5.30;99.90;;;;;;4980063;28;20085;-73
2024/02/23 02:39:21;;;;;;;5.45;1.02;;;5.40;99.90;;;;;;5001387;28;20395;-73
2024/02/23 02:41:48;;;;;;;3.40;0.90;;;5.40;99.90;;;;;;4995410;28;20021;-72
2024/02/23 02:44:14;;;;;;;9.00;1.55;;;5.40;99.90;;;;;;4993385;28;20030;-71
2024/02/23 02:46:41;;;;;;;5.47;1.00;;;5.40;99.90;;;;;;4993800;28;20023;-73
2024/02/23 02:49:07;;;;;;;5.20;1.27;;;5.40;99.90;;;;;;4998662;28;20499;-73
2024/02/23 02:51:32;;;;;;;10.00;1.48;;;5.40;99.90;;;;;;5001531;28;20050;-73
2024/02/23 02:53:58;;;;;;;2.50;1.02;;;5.40;99.90;;;;;;4987325;28;20101;-73
2024/02/23 02:56:24;;;;;;;7.57;1.35;;;5.40;99.90;;;;;;5000105;28;20045;-73
2024/02/23 02:58:50;;;;;;;9.15;1.67;;;5.40;99.90;;;;;;4992872;28;20029;-73
2024/02/23 03:01:16;;;;;;;4.90;0.98;;;5.40;99.90;;;;;;4997345;28;20027;-73
2024/02/23 03:03:41;;;;;;;8.20;1.30;;;5.40;99.90;;;;;;4989402;28;20030;-73
2024/02/23 03:06:07;;;;;;;5.65;1.35;;;5.40;99.90;;;;;;4984924;28;20029;-73
2024/02/23 03:08:34;;;;;;;6.32;1.45;;;5.40;99.90;;;;;;5000993;28;20049;-73
2024/02/23 03:10:59;;;;;;;5.25;1.52;;;5.40;99.90;;;;;;4993467;28;20502;-73
2024/02/23 03:13:25;;;;;;;5.03;1.20;;;5.40;99.90;;;;;;4977057;28;20018;-73
2024/02/23 03:15:51;;;;;;;4.35;1.25;;;5.40;99.90;;;;;;4990637;28;20049;-73
2024/02/23 03:18:17;;;;;;;3.83;0.95;;;5.40;99.90;;;;;;4996772;28;20523;-73
2024/02/23 03:20:42;;;;;;;3.47;0.90;;;5.40;99.90;;;;;;4999860;28;20702;-73
2024/02/23 03:23:08;;;;;;;6.40;1.13;;;5.40;99.90;;;;;;4995318;28;20045;-72
2024/02/23 03:25:34;;;;;;;4.53;1.15;;;5.40;99.90;;;;;;4992101;28;20518;-73
2024/02/23 03:28:00;;;;;;;10.52;1.35;;;5.30;99.90;;;;;;5000828;28;20030;-72
2024/02/23 03:30:26;;;;;;;5.95;1.30;;;5.30;99.90;;;;;;5000998;28;20396;-73
2024/02/23 03:32:51;;;;;;;6.00;1.30;;;5.30;99.90;;;;;;4979790;28;20029;-73
2024/02/23 03:35:17;;;;;;;6.15;1.10;;;5.30;99.90;;;;;;5010766;28;20391;-74
2024/02/23 03:37:43;;;;;;;4.95;0.93;;;5.30;99.90;;;;;;4992531;28;20026;-73
2024/02/23 03:40:10;;;;;;;9.43;1.55;;;5.30;99.90;;;;;;4997865;28;20025;-72
2024/02/23 03:42:36;;;;;;;6.75;1.65;;;5.30;99.90;;;;;;4983116;28;20403;-73
2024/02/23 03:45:02;;;;;;;7.28;1.38;;;5.30;99.90;;;;;;4989816;28;20026;-72
2024/02/23 03:47:28;;;;;;;5.32;1.27;;;5.40;99.90;;;;;;4977913;28;20026;-73
2024/02/23 03:49:54;;;;;;;9.32;1.63;;;5.30;99.90;;;;;;4974141;28;20037;-73
2024/02/23 03:52:20;;;;;;;7.50;1.85;;;5.30;99.90;;;;;;4999386;28;20022;-73
2024/02/23 03:54:45;;;;;;;5.18;1.60;;;5.30;99.90;;;;;;4984711;28;20523;-73
2024/02/23 03:57:11;;;;;;;6.03;1.75;;;5.30;99.90;;;;;;4999862;28;20023;-72
2024/02/23 03:59:37;;;;;;;10.07;1.48;;;5.30;99.90;;;;;;4986522;28;20026;-73
2024/02/23 04:02:03;;;;;;;6.53;1.08;;;5.30;99.90;;;;;;5000185;28;20054;-73
2024/02/23 04:04:29;;;;;;;7.07;1.15;;;5.30;99.90;;;;;;4995041;28;20029;-73
2024/02/23 04:06:55;;;;;;;5.30;1.20;;;5.30;99.90;;;;;;4996722;28;20518;-72
2024/02/23 04:09:21;;;;;;;7.78;1.52;;;5.30;99.90;;;;;;5002856;28;20030;-73
2024/02/23 04:11:49;;;;;;;5.28;1.30;;;5.30;99.90;;;;;;4986550;28;20396;-73
2024/02/23 04:14:15;;;;;;;6.90;1.10;;;5.30;99.90;;;;;;4999667;28;20027;-73
2024/02/23 04:16:41;;;;;;;7.63;1.83;;;5.30;99.90;;;;;;4986740;28;20053;-73
2024/02/23 04:19:06;;;;;;;6.00;1.70;;;5.30;99.90;;;;;;4982316;28;20578;-73
2024/02/23 04:21:32;;;;;;;6.03;1.15;;;5.30;99.90;;;;;;4995468;28;20168;-73
2024/02/23 04:23:58;;;;;;;12.93;1.73;;;5.30;99.90;;;;;;4973064;28;20408;-73
2024/02/23 04:26:24;;;;;;;5.65;1.50;;;5.30;99.90;;;;;;4975912;28;20092;-73
2024/02/23 04:28:50;;;;;;;4.65;1.50;;;5.30;99.90;;;;;;4992416;28;20476;-73
2024/02/23 04:31:15;;;;;;;5.30;1.73;;;5.40;99.90;;;;;;5000203;28;20084;-73
2024/02/23 04:33:41;;;;;;;5.57;1.20;;;5.30;99.90;;;;;;4997454;28;20439;-74
2024/02/23 04:36:07;;;;;;;7.25;1.13;;;5.30;99.90;;;;;;4973879;28;20022;-75
2024/02/23 04:38:34;;;;;;;7.22;1.23;;;5.30;99.90;;;;;;4991826;28;20033;-74
2024/02/23 04:41:03;;;;;;;2.85;1.10;;;5.30;99.90;;;;;;5002549;28;20033;-73
2024/02/23 04:43:29;;;;;;;4.85;1.25;;;5.30;99.90;;;;;;4993921;28;20029;-73
2024/02/23 04:45:55;;;;;;;6.53;1.40;;;5.30;99.90;;;;;;5001251;28;20029;-74
2024/02/23 04:48:20;;;;;;;4.05;1.38;;;5.30;99.90;;;;;;4991949;28;20448;-74
2024/02/23 04:50:46;;;;;;;4.95;1.60;;;5.30;99.90;;;;;;4997181;28;20041;-74
2024/02/23 04:53:12;;;;;;;6.25;1.23;;;5.40;99.90;;;;;;4982694;28;20077;-73
2024/02/23 04:55:38;;;;;;;5.63;1.25;;;5.40;99.90;;;;;;4978099;28;20531;-75
2024/02/23 04:58:04;;;;;;;5.85;1.20;;;5.30;99.90;;;;;;4993882;28;20027;-74
2024/02/23 05:00:33;;;;;;;5.25;1.23;;;5.30;99.90;;;;;;4999370;28;20480;-74
2024/02/23 05:03:00;;;;;;;9.30;1.40;;;5.30;99.90;;;;;;4996294;28;20030;-74
2024/02/23 05:05:25;;;;;;;6.45;1.20;;;5.40;99.90;;;;;;4991730;28;20093;-73
2024/02/23 05:07:51;;;;;;;8.10;1.48;;;5.40;99.90;;;;;;5002671;28;20026;-73
2024/02/23 05:10:17;;;;;;;9.07;1.88;;;5.40;99.90;;;;;;5005568;28;20022;-73
2024/02/23 05:12:43;;;;;;;6.65;1.42;;;5.40;99.90;;;;;;4995878;28;20105;-74
2024/02/23 05:15:08;;;;;;;10.65;1.90;;;5.40;99.90;;;;;;4996400;28;20126;-74
2024/02/23 05:17:34;;;;;;;8.48;1.42;;;5.40;99.90;;;;;;4994213;28;20052;-74
2024/02/23 05:20:00;;;;;;;9.90;1.88;;;5.50;99.90;;;;;;4980349;28;20480;-74
2024/02/23 05:22:26;;;;;;;4.43;1.00;;;5.50;99.90;;;;;;5003208;28;20030;-73
2024/02/23 05:24:52;;;;;;;10.57;1.80;;;5.50;99.90;;;;;;4971378;28;20423;-73
2024/02/23 05:27:17;;;;;;;7.30;1.27;;;5.60;99.90;;;;;;5003090;28;20041;-73
2024/02/23 05:29:43;;;;;;;7.60;1.73;;;5.60;99.90;;;;;;4995040;28;20116;-73
2024/02/23 05:32:09;;;;;;;6.53;1.60;;;5.60;99.90;;;;;;4996391;28;20476;-73
2024/02/23 05:34:35;;;;;;;8.60;1.33;;;5.70;99.90;;;;;;4984804;28;20030;-73
2024/02/23 05:37:01;;;;;;;10.40;1.70;;;5.70;99.90;;;;;;4997242;28;20534;-74
2024/02/23 05:39:27;;;;;;;6.38;1.50;;;5.70;99.90;;;;;;5002525;28;20030;-74
2024/02/23 05:41:53;;;;;;;5.68;1.40;;;5.70;99.90;;;;;;4997829;28;20447;-73
2024/02/23 05:44:19;;;;;;;3.83;1.40;;;5.70;99.90;;;;;;5003471;28;20041;-74
2024/02/23 05:46:44;;;;;;;7.70;1.67;;;5.80;99.90;;;;;;4988744;28;20089;-74
2024/02/23 05:49:11;;;;;;;7.78;1.50;;;5.80;99.90;;;;;;4988089;28;20022;-73
2024/02/23 05:51:36;;;;;;;8.48;1.50;;;5.80;99.90;;;;;;4988834;28;20097;-73
2024/02/23 05:54:02;;;;;;;5.65;1.48;;;5.80;99.90;;;;;;4970811;28;20397;-73
2024/02/23 05:56:28;;;;;;;6.78;1.50;;;5.80;99.90;;;;;;4988700;28;20350;-73
2024/02/23 05:58:54;;;;;;;4.65;1.75;;;5.80;99.90;;;;;;4988518;28;20026;-73
2024/02/23 06:01:19;;;;;;;8.93;2.45;;;5.80;99.90;;;;;;4988214;28;20109;-74
2024/02/23 06:03:46;;;;;;;7.95;2.05;;;5.90;99.90;;;;;;4970819;28;20042;-72
2024/02/23 06:06:11;;;;;;;7.55;1.80;;;5.90;99.90;;;;;;4988027;28;20026;-74
2024/02/23 06:08:37;;;;;;;6.63;1.42;;;5.90;99.90;;;;;;4972228;28;20034;-74
2024/02/23 06:11:03;;;;;;;6.28;1.73;;;6.00;99.90;;;;;;4989002;28;20023;-73
2024/02/23 06:13:32;;;;;;;3.13;1.55;;;5.90;99.90;;;;;;4988671;28;20026;-74
2024/02/23 06:15:59;;;;;;;6.55;1.67;;;5.90;99.90;;;;;;4986566;28;20039;-73
2024/02/23 06:18:25;;;;;;;5.43;1.42;;;5.90;99.90;;;;;;4972122;28;20491;-74
2024/02/23 06:20:50;;;;;;;4.38;1.20;;;5.90;99.90;;;;;;4976188;28;20030;-74
2024/02/23 06:23:17;;;;;;;11.15;1.85;;;5.90;99.90;;;;;;4988596;28;20424;-73
2024/02/23 06:25:46;;;;;;;8.85;1.90;;;5.90;99.90;;;;;;4987875;28;20412;-74
2024/02/23 06:28:11;;;;;;;6.22;1.35;;;5.90;99.90;;;;;;4970748;28;20022;-74
2024/02/23 06:30:37;;;;;;;7.70;1.95;;;5.90;99.90;;;;;;4987770;28;20057;-74
2024/02/23 06:33:04;;;;;;;8.45;1.88;;;5.90;99.90;;;;;;4985837;28;20026;-74
2024/02/23 06:35:30;;;;;;;8.40;1.73;;;5.90;99.90;;;;;;4983083;28;20053;-74
2024/02/23 06:37:56;;;;;;;8.43;2.15;;;5.90;99.90;;;;;;4989232;28;20036;-74
2024/02/23 06:40:22;;;;;;;5.45;1.15;;;5.90;99.90;;;;;;4983246;28;20031;-74
2024/02/23 06:42:48;;;;;;;9.02;1.45;;;5.90;99.90;;;;;;4982934;28;20275;-73
2024/02/23 06:45:14;;;;;;;9.38;1.88;;;6.00;99.90;;;;;;4990539;28;20664;-74
2024/02/23 06:47:42;;;;;;;4.85;1.38;;;6.00;99.90;;;;;;4988734;28;20026;-74
2024/02/23 06:50:08;;;;;;;7.55;1.27;;;6.00;99.90;;;;;;4977768;28;20046;-74
2024/02/23 06:52:34;;;;;;;6.45;1.60;;;6.00;99.90;;;;;;4991220;28;20581;-74
2024/02/23 06:55:00;;;;;;;4.75;1.10;;;6.10;99.90;;;;;;4988814;28;20080;-73
2024/02/23 06:57:25;;;;;;;4.20;1.25;;;6.10;99.90;;;;;;4977668;28;20554;-74
2024/02/23 06:59:52;;;;;;;7.00;2.00;;;6.10;99.90;;;;;;4988040;28;20166;-74
2024/02/23 07:02:18;;;;;;;10.57;1.40;;;6.20;99.90;;;;;;4985161;28;20504;-74
2024/02/23 07:04:43;;;;;;;7.38;1.40;;;6.20;99.90;;;;;;4964577;28;20052;-74
2024/02/23 07:07:11;;;;;;;5.88;1.20;;;6.20;99.90;;;;;;4974932;28;20067;-74
2024/02/23 07:09:37;;;;;;;5.75;1.20;;;6.20;99.90;;;;;;4989072;28;20026;-74
2024/02/23 07:12:03;;;;;;;8.15;2.10;;;6.20;99.90;;;;;;4968095;28;20038;-73
2024/02/23 07:14:29;;;;;;;7.75;1.23;;;6.30;99.90;;;;;;4982919;28;20050;-74
2024/02/23 07:16:54;;;;;;;7.40;1.63;;;6.30;99.90;;;;;;4985726;28;20082;-74
2024/02/23 07:19:20;;;;;;;6.53;1.52;;;6.30;99.90;;;;;;4978422;28;20023;-74
2024/02/23 07:21:46;;;;;;;6.68;1.50;;;6.30;99.90;;;;;;4978141;28;20035;-72
2024/02/23 07:24:12;;;;;;;6.70;2.00;;;6.30;99.90;;;;;;4980419;28;20035;-73
2024/02/23 07:26:38;;;;;;;7.97;1.52;;;6.30;99.90;;;;;;4982331;28;20062;-72
2024/02/23 07:29:04;;;;;;;5.80;1.33;;;6.40;99.90;;;;;;4978698;28;20121;-73
2024/02/23 07:31:30;;;;;;;8.20;1.52;;;6.40;99.90;;;;;;4976567;28;20064;-73
2024/02/23 07:33:55;;;;;;;6.15;1.60;;;6.40;99.90;;;;;;4977063;28;20030;-72
2024/02/23 07:36:21;;;;;;;6.05;1.77;;;6.40;99.90;;;;;;4981206;28;20027;-73
2024/02/23 07:38:47;;;;;;;7.75;1.42;;;6.40;99.90;;;;;;4975809;28;20036;-73
2024/02/23 07:41:14;;;;;;;7.60;1.15;;;6.40;99.90;;;;;;4974226;28;20033;-74
2024/02/23 07:43:40;;;;;;;8.75;2.08;;;6.50;99.90;;;;;;4987461;28;20041;-73
2024/02/23 07:46:08;;;;;;;6.22;1.25;;;6.50;99.90;;;;;;4985873;28;20035;-74
2024/02/23 07:48:35;;;;;;;7.03;1.55;;;6.50;99.90;;;;;;4969235;28;20026;-74
2024/02/23 07:51:02;;;;;;;7.22;1.35;;;6.50;99.90;;;;;;4968284;28;20030;-73
2024/02/23 07:53:28;;;;;;;6.50;1.23;;;6.50;99.90;;;;;;4986907;28;20026;-74
2024/02/23 07:55:53;;;;;;;6.57;1.63;;;6.50;99.90;;;;;;4985866;28;20076;-74
2024/02/23 07:58:19;;;;;;;9.10;1.15;;;6.60;99.90;;;;;;4986898;28;20030;-73
2024/02/23 08:00:45;;;;;;;8.35;1.50;;;6.60;99.90;;;;;;4986271;28;20114;-73
2024/02/23 08:03:10;;;;;;;6.55;1.90;;;6.60;99.90;;;;;;4986742;28;20026;-73
2024/02/23 08:05:36;;;;;;;8.02;1.77;;;6.60;99.90;;;;;;4986065;28;20113;-73
2024/02/23 08:08:02;;;;;;;5.22;1.20;;;6.60;99.90;;;;;;4970816;28;20030;-73
2024/02/23 08:10:28;;;;;;;7.78;1.42;;;6.70;99.90;;;;;;4988303;28;20042;-73
2024/02/23 08:12:54;;;;;;;8.63;1.80;;;6.70;99.90;;;;;;4986232;28;20046;-73
2024/02/23 08:15:20;;;;;;;5.03;1.15;;;6.70;99.90;;;;;;4982007;28;20245;-73
2024/02/23 08:17:45;;;;;;;9.75;1.58;;;6.80;99.90;;;;;;4980017;28;20043;-73
2024/02/23 08:20:11;;;;;;;9.52;1.70;;;6.80;99.90;;;;;;4972025;28;20023;-73
2024/02/23 08:22:37;;;;;;;8.25;1.35;;;6.80;99.90;;;;;;4996170;28;20990;-73
2024/02/23 08:25:03;;;;;;;6.95;1.60;;;6.80;99.90;;;;;;4968025;28;20754;-74
2024/02/23 08:27:30;;;;;;;10.77;2.00;;;6.80;99.90;;;;;;4986148;28;20543;-73
2024/02/23 08:29:55;;;;;;;8.23;2.22;;;6.80;99.90;;;;;;4985378;28;20022;-73
2024/02/23 08:32:21;;;;;;;8.55;1.85;;;6.80;99.90;;;;;;4963670;28;20510;-73
2024/02/23 08:34:47;;;;;;;6.90;1.50;;;6.90;99.90;;;;;;4976519;28;20023;-73
2024/02/23 08:37:12;;;;;;;4.63;1.30;;;6.90;99.90;;;;;;4985148;28;20400;-74
2024/02/23 08:39:38;;;;;;;8.02;1.30;;;6.90;99.90;;;;;;4966791;28;20034;-74
2024/02/23 08:42:04;;;;;;;6.75;1.30;;;7.00;99.90;;;;;;4986275;28;20050;-74
2024/02/23 08:44:30;;;;;;;8.95;1.60;;;7.00;99.90;;;;;;4982721;28;20400;-74
2024/02/23 08:46:56;;;;;;;7.40;2.00;;;7.00;99.90;;;;;;4995675;28;20019;-74
2024/02/23 08:49:21;;;;;;;5.18;1.20;;;7.00;99.90;;;;;;4979445;28;20389;-76
2024/02/23 08:51:47;;;;;;;8.85;1.52;;;7.10;99.90;;;;;;4976551;28;20038;-75
2024/02/23 08:54:13;;;;;;;4.85;1.02;;;7.10;99.90;;;;;;4985962;28;20019;-75
2024/02/23 08:56:39;;;;;;;3.78;0.90;;;7.20;99.90;;;;;;4957964;28;20340;-75
2024/02/23 08:59:05;;;;;;;5.45;1.25;;;7.20;99.90;;;;;;4959534;28;20046;-74
2024/02/23 09:01:31;;;;;;;6.00;1.60;;;7.20;99.90;;;;;;4964233;28;20523;-74
2024/02/23 09:03:56;;;;;;;8.70;1.40;;;7.30;99.90;;;;;;4980046;28;20481;-73
2024/02/23 09:06:22;;;;;;;6.38;1.20;;;7.30;99.90;;;;;;4990139;28;20098;-73
2024/02/23 09:08:48;;;;;;;10.23;1.38;;;7.30;99.90;;;;;;4988494;28;20562;-75
2024/02/23 09:11:15;;;;;;;5.90;1.52;;;7.30;99.90;;;;;;4982668;28;20129;-75
2024/02/23 09:13:42;;;;;;;6.38;1.50;;;7.30;99.90;;;;;;4969566;28;20117;-75
2024/02/23 09:16:08;;;;;;;7.20;1.63;;;7.30;99.90;;;;;;4963193;28;20637;-73
2024/02/23 09:18:34;;;;;;;4.75;1.60;;;7.30;99.90;;;;;;4961955;28;20034;-73
2024/02/23 09:21:00;;;;;;;4.13;1.10;;;7.30;99.90;;;;;;4988080;28;20603;-74
2024/02/23 09:23:26;;;;;;;5.57;1.55;;;7.30;99.90;;;;;;4979055;28;20114;-74
2024/02/23 09:25:52;;;;;;;9.68;2.10;;;7.30;99.90;;;;;;4989332;28;20030;-74
2024/02/23 09:28:19;;;;;;;4.32;1.25;;;7.40;99.90;;;;;;4972175;28;20073;-74
2024/02/23 09:30:44;;;;;;;5.55;1.08;;;7.40;99.90;;;;;;4985743;28;20030;-75
2024/02/23 09:33:12;;;;;;;8.95;1.27;;;7.40;99.90;;;;;;4990355;28;20434;-74
2024/02/23 09:35:38;;;;;;;6.20;2.00;;;7.40;99.90;;;;;;4986245;28;20031;-75
2024/02/23 09:38:04;;;;;;;9.93;1.67;;;7.40;99.90;;;;;;4989110;28;20073;-75
2024/02/23 09:40:29;;;;;;;9.48;1.35;;;7.30;99.90;;;;;;4966993;28;20022;-75
2024/02/23 09:42:57;;;;;;;8.48;1.58;;;7.30;99.90;;;;;;4971777;28;20029;-74
2024/02/23 09:45:26;;;;;;;7.10;1.40;;;7.30;99.90;;;;;;4982592;28;20031;-75
2024/02/23 09:47:55;;;;;;;7.75;1.83;;;7.30;99.90;;;;;;4987426;28;20085;-74
2024/02/23 09:50:23;;;;;;;3.45;0.90;;;7.30;99.90;;;;;;5001886;28;20414;-75
2024/02/23 09:52:52;;;;;;;13.13;1.25;;;7.40;99.90;;;;;;4977195;28;20026;-75
2024/02/23 09:55:18;;;;;;;6.28;1.15;;;7.40;99.90;;;;;;4979861;28;20025;-74
2024/02/23 09:57:47;;;;;;;5.00;1.13;;;7.50;99.90;;;;;;4990228;28;20497;-75
2024/02/23 10:00:15;;;;;;;7.70;1.45;;;7.50;99.90;;;;;;4989957;28;20912;-76
2024/02/23 10:02:41;;;;;;;9.23;2.22;;;7.50;99.90;;;;;;5001081;28;20026;-74
2024/02/23 10:05:10;;;;;;;6.47;1.38;;;7.50;99.90;;;;;;4988207;28;20033;-76
2024/02/23 10:07:35;;;;;;;3.45;0.90;;;7.50;99.90;;;;;;4983789;28;20030;-74
2024/02/23 10:10:01;;;;;;;10.07;1.85;;;7.50;99.90;;;;;;4980026;28;20029;-75
2024/02/23 10:12:27;;;;;;;6.03;1.70;;;7.50;99.90;;;;;;4989082;28;20407;-74
2024/02/23 10:14:54;;;;;;;7.10;1.52;;;7.60;99.90;;;;;;4978119;28;20023;-74
2024/02/23 10:17:20;;;;;;;6.43;1.27;;;7.60;99.90;;;;;;4984541;28;20054;-75
2024/02/23 10:19:47;;;;;;;7.85;1.60;;;7.60;99.90;;;;;;5002924;28;20049;-74
2024/02/23 10:22:14;;;;;;;5.47;1.10;;;7.60;99.90;;;;;;4988495;28;20085;-73
2024/02/23 10:24:39;;;;;;;7.00;1.50;;;7.50;99.90;;;;;;4988954;28;20538;-75
2024/02/23 10:27:06;;;;;;;6.72;1.20;;;7.50;99.90;;;;;;4989139;28;20034;-74
2024/02/23 10:29:31;;;;;;;3.83;1.20;;;7.50;99.90;;;;;;4976448;28;20837;-75
2024/02/23 10:31:58;;;;;;;5.07;1.23;;;7.50;99.90;;;;;;4997479;28;20117;-75
2024/02/23 10:34:26;;;;;;;13.07;1.52;;;7.50;99.90;;;;;;4989169;28;20037;-74
2024/02/23 10:36:54;;;;;;;11.35;1.75;;;7.50;99.90;;;;;;4972129;28;20029;-74
2024/02/23 10:39:22;;;;;;;6.35;0.95;;;7.50;99.90;;;;;;4992762;28;20026;-74
2024/02/23 10:41:59;;;;;;;6.88;1.40;;;7.50;99.90;;;;;;4986284;28;20030;-74
2024/02/23 10:44:28;;;;;;;4.38;1.30;;;7.50;99.90;;;;;;4971266;28;20448;-74
2024/02/23 10:46:55;;;;;;;4.20;1.58;;;7.50;99.90;;;;;;4970310;28;20053;-74
2024/02/23 10:49:26;;;;;;;3.90;1.00;;;7.50;99.90;;;;;;4987864;28;20026;-74
2024/02/23 10:51:52;;;;;;;6.38;1.13;;;7.50;99.90;;;;;;4968781;28;20521;-75
2024/02/23 10:54:20;;;;;;;4.85;1.25;;;7.60;99.90;;;;;;4985919;28;20050;-74
2024/02/23 10:56:47;;;;;;;4.00;0.98;;;7.60;99.90;;;;;;4962458;28;20375;-74
2024/02/23 10:59:13;;;;;;;12.00;1.08;;;7.60;99.90;;;;;;4988051;28;20018;-74
2024/02/23 11:01:40;;;;;;;1.90;0.70;;;7.70;99.90;;;;;;4998321;28;20033;-74
2024/02/23 11:04:07;;;;;;;3.33;0.85;;;7.70;99.90;;;;;;4991515;28;20026;-74
2024/02/23 11:06:34;;;;;;;3.92;0.80;;;7.70;99.90;;;;;;4977563;28;20026;-74
2024/02/23 11:09:09;;;;;;;4.72;1.13;;;7.70;99.90;;;;;;4972982;28;20074;-75
2024/02/23 11:11:37;;;;;;;3.28;0.93;;;7.70;99.90;;;;;;4962958;28;20121;-75
2024/02/23 11:14:06;;;;;;;9.38;1.10;;;7.70;99.90;;;;;;4970461;28;20069;-75
2024/02/23 11:16:33;;;;;;;7.72;1.20;;;7.70;99.90;;;;;;4971501;28;20512;-74
2024/02/23 11:19:17;;;;;;;3.80;1.10;;;7.70;99.90;;;;;;4950365;28;20578;-76
2024/02/23 11:21:42;;;;;;;2.78;0.77;;;7.70;99.90;;;;;;4968712;28;20018;-73
2024/02/23 11:24:15;;;;;;;3.67;1.20;;;7.70;99.90;;;;;;4997648;28;20096;-75
2024/02/23 11:26:41;;;;;;;3.78;0.82;;;7.70;99.90;;;;;;4989543;28;20048;-74
2024/02/23 11:29:11;;;;;;;3.22;1.00;;;7.80;99.90;;;;;;4983052;28;20041;-75
2024/02/23 11:31:45;;;;;;;5.37;1.00;;;7.70;99.90;;;;;;4984883;28;20084;-74
2024/02/23 11:34:11;;;;;;;4.07;0.82;;;7.80;99.90;;;;;;4982013;28;20030;-74
2024/02/23 11:36:38;;;;;;;3.72;0.95;;;7.80;99.90;;;;;;4959349;28;20550;-75
2024/02/23 11:39:05;;;;;;;5.22;0.85;;;7.80;99.90;;;;;;4972993;28;20018;-75
2024/02/23 11:41:31;;;;;;;3.42;1.25;;;7.80;99.90;;;;;;4980947;28;20116;-74
2024/02/23 11:44:00;;;;;;;3.75;0.85;;;7.80;99.90;;;;;;4967170;28;20507;-74
2024/02/23 11:46:25;;;;;;;3.65;1.42;;;7.80;99.90;;;;;;4975826;28;20027;-74
2024/02/23 11:48:54;;;;;;;3.70;1.10;;;7.80;99.90;;;;;;4984460;28;20563;-74
2024/02/23 11:51:21;;;;;;;3.38;0.90;;;7.90;99.90;;;;;;4966065;28;20038;-74
2024/02/23 11:53:48;;;;;;;2.55;0.73;;;7.90;99.90;;;;;;4980782;28;20058;-76
2024/02/23 11:56:14;;;;;;;5.00;1.27;;;8.00;99.90;;;;;;4967291;28;20030;-76
2024/02/23 11:58:40;;;;;;;2.85;0.90;;;8.00;99.90;;;;;;4984173;28;20351;-75
2024/02/23 12:01:06;;;;;;;3.08;1.00;;;8.00;99.90;;;;;;4984727;28;20026;-74
2024/02/23 12:03:33;;;;;;;5.00;1.15;;;8.00;99.90;;;;;;4986713;28;20022;-74
2024/02/23 12:06:00;;;;;;;2.50;0.93;;;8.10;99.90;;;;;;4986335;28;20031;-73
2024/02/23 12:08:27;;;;;;;2.53;0.82;;;8.10;99.90;;;;;;4984733;28;20404;-74
2024/02/23 12:10:54;;;;;;;5.70;1.50;;;8.10;99.90;;;;;;4984627;28;20484;-74
2024/02/23 12:13:20;;;;;;;5.35;1.60;;;8.10;99.90;;;;;;4985352;28;20018;-73
2024/02/23 12:15:47;;;;;;;3.80;1.10;;;8.10;99.90;;;;;;4968159;28;20046;-73
2024/02/23 12:18:14;;;;;;;5.15;1.02;;;8.10;99.90;;;;;;4992399;28;20026;-74
2024/02/23 12:20:40;;;;;;;3.40;0.95;;;8.10;99.90;;;;;;4992628;28;20026;-74
2024/02/23 12:23:07;;;;;;;4.85;1.00;;;8.10;99.90;;;;;;4992358;28;20106;-74
2024/02/23 12:25:34;;;;;;;6.55;1.30;;;8.10;99.90;;;;;;4974787;28;20026;-74
2024/02/23 12:28:03;;;;;;;7.07;1.83;;;8.10;99.90;;;;;;4992709;28;20045;-74
2024/02/23 12:30:31;;;;;;;5.20;1.20;;;8.10;99.90;;;;;;4989619;28;20077;-73
2024/02/23 12:33:09;;;;;;;6.68;1.13;;;8.10;99.90;;;;;;4989305;28;20423;-73
2024/02/23 12:35:38;;;;;;;4.40;1.10;;;8.10;99.90;;;;;;4995538;28;20105;-74
2024/02/23 12:38:04;;;;;;;3.97;1.05;;;8.10;99.90;;;;;;4991976;28;20022;-73
2024/02/23 12:40:29;;;;;;;6.13;1.20;;;8.10;99.90;;;;;;4974987;28;20037;-73
2024/02/23 12:42:55;;;;;;;3.97;1.00;;;8.20;99.90;;;;;;4991624;28;20026;-73
2024/02/23 12:45:21;;;;;;;4.13;1.02;;;8.20;99.90;;;;;;4987055;28;20488;-74
2024/02/23 12:47:46;;;;;;;3.92;1.00;;;8.20;99.90;;;;;;4980903;28;20042;-73
2024/02/23 12:50:12;;;;;;;3.03;1.02;;;8.20;99.90;;;;;;4988776;28;20034;-73